Accueil
METAR-TAF:

METAR-TAF

Aéroports :

Aérodrome de Logrogne

Logroño, Espagne

latitude: 42-27N, longitude: 002-20W, altitude: 353 m

Observation

Le bulletin a été fait il y a 25 minutes, à 02:00 UTC
Vent 2 kt de direction variable
Température 14°C
Humidité 88%
Pression 1024 hPa
Visibilité 10 km ou plus

METAR: LELO 190200Z AUTO VRB02KT 9999 NCD 14/12 Q1024

Heure: 04:25 (02:25 UTC)

Prévision

Le bulletin a été fait il y a 9 heures et 25 minutes, à 17:00 UTC
Prévision valable du 18 à 18 UTC au 19 à 03 UTC
Vent 7 kt de ouest/nord-ouest
Visibilité 10 km ou plus
Quelques nuages à une hauteur de 4000 ft
Probabilité 40% :
Temporairement
du 18 à 18 UTC au 18 à 19 UTC
Vent 10 kt de nord avec des rafales jusqu'à 20 kt

TAF: LELO 181700Z 1818/1903 30007KT 9999 FEW040 PROB40 TEMPO 1818/1819 36010G20KT

Observations et prévisions météorologiques de plus de 4000 aéroports (messages METAR et TAF).

Les stations disponibles sont représentées par des disques jaunes et rouges sur la carte.

Passer la souris dessus pour voir le nom de la station.

Cliquer dessus pour voir les observations et prévisions météorologiques.

Pour changer de carte: cliquez sur les boutons verts avec une croix noire pour zoomer, sur le bouton vert avec un tiret pour effectuer un zoom arrière, ou sur les flèches vertes pour les cartes adjacentes.


METAR-TAF: